createdAt,value
2022-12-25T01:18:41.262Z,99978.94
2022-12-25T09:53:44.366Z,99803.16
2022-12-25T09:56:12.846Z,99778.91
2022-12-25T09:58:39.397Z,99774.25
2022-12-25T10:01:12.004Z,99769.59
2022-12-25T10:04:03.311Z,99744.63
2022-12-25T10:06:45.257Z,99734.69
2022-12-25T10:09:18.664Z,99732.03
2022-12-25T10:11:59.886Z,99725.75
2022-12-25T10:14:46.514Z,99725.75
2022-12-25T10:17:22.026Z,99710.63
2022-12-25T10:19:51.449Z,99691.97
2022-12-25T10:22:30.392Z,99684.44
2022-12-25T10:24:59.274Z,99690.25
2022-12-25T10:27:40.158Z,99693.06
2022-12-25T10:30:26.297Z,99684.44
2022-12-25T10:32:53.340Z,99682.91
2022-12-25T10:35:22.120Z,99683.41
2022-12-25T10:37:59.637Z,99685.72
2022-12-25T10:40:52.982Z,99685.22
2022-12-25T10:43:33.003Z,99682.28
2022-12-25T10:45:59.630Z,99685.50
2022-12-25T10:48:30.280Z,99676.72
2022-12-25T10:50:56.828Z,99670.81
2022-12-25T10:53:39.100Z,99687.44
2022-12-25T10:56:06.536Z,99690.09
2022-12-25T10:58:33.813Z,99708.13
2022-12-25T11:01:03.256Z,99724.94
2022-12-25T11:03:35.067Z,99717.34
2022-12-25T11:06:02.751Z,99721.47
2022-12-25T11:08:31.361Z,99698.59
2022-12-25T11:11:05.948Z,99692.22
2022-12-25T11:13:39.395Z,99694.50
2022-12-25T11:16:15.694Z,99685.50
2022-12-25T11:18:50.979Z,99677.47
2022-12-25T11:21:31.990Z,99666.63
2022-12-25T11:24:02.388Z,99674.59
2022-12-25T11:26:31.842Z,99683.34
2022-12-25T11:28:58.576Z,99685.69
2022-12-25T11:31:41.195Z,99700.09
2022-12-25T11:34:26.328Z,99702.97
2022-12-25T11:36:53.353Z,99699.72
2022-12-25T11:39:32.666Z,99686.47
2022-12-25T11:42:03.593Z,99674.69
2022-12-25T11:44:33.027Z,99676.16
2022-12-25T11:47:04.136Z,99675.91
2022-12-25T11:49:30.745Z,99666.31
2022-12-25T11:51:57.778Z,99650.75
2022-12-25T11:54:32.159Z,99653.41
2022-12-25T11:57:00.729Z,99645.44
2022-12-25T11:59:34.999Z,99634.34
2022-12-25T12:02:04.383Z,99638.81
2022-12-25T12:04:42.111Z,99622.31
2022-12-25T12:07:27.542Z,99601.97
2022-12-25T12:10:16.647Z,99578.63
2022-12-25T12:12:53.509Z,99567.72
2022-12-25T12:15:35.564Z,99566.25
2022-12-25T12:18:22.626Z,99568.56
2022-12-25T12:21:10.583Z,99572.06
2022-12-25T12:23:47.470Z,99574.13
2022-12-25T12:26:28.168Z,99568.34
2022-12-25T12:28:57.743Z,99572.84
2022-12-25T12:31:25.245Z,99573.81
2022-12-25T12:33:57.184Z,99582.25
2022-12-25T12:36:35.714Z,99590.19
2022-12-25T12:39:05.010Z,99596.19
2022-12-25T12:41:48.645Z,99602.97
2022-12-25T12:44:16.740Z,99596.19
2022-12-25T12:47:26.406Z,99601.28
2022-12-25T12:50:00.291Z,99599.47
2022-12-25T12:52:38.233Z,99603.94
2022-12-25T12:55:13.001Z,99601.50
2022-12-25T12:57:40.271Z,99601.50
2022-12-25T13:00:16.695Z,99596.19
2022-12-25T13:03:06.281Z,99595.38
2022-12-25T13:05:45.998Z,99593.19
2022-12-25T13:08:33.221Z,99604.63
2022-12-25T13:11:26.792Z,99600.41
2022-12-25T13:13:55.028Z,99588.38
2022-12-25T13:16:25.610Z,99574.28
2022-12-25T13:18:53.633Z,99571.50
2022-12-25T13:21:23.733Z,99570.44
2022-12-25T13:23:56.669Z,99571.38
2022-12-25T13:26:23.919Z,99553.56
2022-12-25T13:28:50.333Z,99565.84
2022-12-25T13:31:22.632Z,99551.88
2022-12-25T13:33:55.554Z,99561.25
2022-12-25T13:36:22.125Z,99551.13
2022-12-25T13:38:51.397Z,99543.63
2022-12-25T13:41:39.929Z,99549.41
2022-12-25T13:44:14.995Z,99543.75
2022-12-25T13:46:41.425Z,99547.97
2022-12-25T13:49:14.382Z,99542.66
2022-12-25T13:51:40.902Z,99540.97
2022-12-25T13:54:08.793Z,99525.06
2022-12-25T13:56:35.980Z,99531.09
2022-12-25T13:59:03.415Z,99519.38
2022-12-25T14:01:30.051Z,99516.47
2022-12-25T14:03:56.608Z,99512.72
2022-12-25T14:06:28.644Z,99510.69
2022-12-25T14:08:56.757Z,99516.59
2022-12-25T14:11:24.731Z,99509.09
2022-12-25T14:13:54.470Z,99516.56
2022-12-25T14:16:21.399Z,99516.16
2022-12-25T14:18:59.049Z,99523.50
2022-12-25T14:21:29.254Z,99516.97
2022-12-25T14:23:55.946Z,99519.97
2022-12-25T14:26:24.655Z,99516.34
2022-12-25T14:29:15.760Z,99515.25
2022-12-25T14:31:44.220Z,99520.16
2022-12-25T14:34:14.899Z,99529.44
2022-12-25T14:36:41.546Z,99530.84
2022-12-25T14:39:26.737Z,99535.06
2022-12-25T14:41:53.674Z,99540.97
2022-12-25T14:44:36.750Z,99537.34
2022-12-25T14:47:14.846Z,99546.13
2022-12-25T14:49:41.796Z,99539.72
2022-12-25T14:52:38.409Z,99539.59
2022-12-25T14:55:18.680Z,99535.00
2022-12-25T14:57:49.048Z,99535.69
2022-12-25T15:00:20.860Z,99532.81
2022-12-25T15:02:48.244Z,99530.00
2022-12-25T15:05:25.637Z,99526.38
2022-12-25T15:08:03.216Z,99536.88
2022-12-25T15:10:58.783Z,99526.13
2022-12-25T15:13:19.519Z,99515.75
2022-12-25T15:15:52.224Z,99516.16
2022-12-25T15:18:20.191Z,99517.25
2022-12-25T15:20:46.636Z,99520.63
2022-12-25T15:23:20.273Z,99525.06
2022-12-25T15:25:47.606Z,99523.00
2022-12-25T15:28:14.204Z,99521.91
2022-12-25T15:30:40.811Z,99510.44
2022-12-25T15:33:07.536Z,99512.13
2022-12-25T15:35:34.256Z,99512.13
2022-12-25T15:38:00.732Z,99507.94
2022-12-25T15:40:27.191Z,99507.22
2022-12-25T15:42:56.413Z,99512.53
2022-12-25T15:45:26.765Z,99506.63
2022-12-25T15:47:53.299Z,99516.78
2022-12-25T15:50:21.648Z,99518.47
2022-12-25T15:52:48.141Z,99530.94
2022-12-25T15:55:14.937Z,99540.44
2022-12-25T15:57:43.184Z,99540.44
2022-12-25T16:00:17.041Z,99548.44
2022-12-25T16:02:43.692Z,99550.22
2022-12-25T16:05:10.765Z,99555.41
2022-12-25T16:07:37.652Z,99558.19
2022-12-25T16:10:06.510Z,99545.03
2022-12-25T16:12:33.056Z,99546.00
2022-12-25T16:14:59.623Z,99540.69
2022-12-25T16:17:26.216Z,99545.41
2022-12-25T16:19:52.639Z,99540.50
2022-12-25T16:22:23.049Z,99541.34
2022-12-25T16:24:49.943Z,99543.31
2022-12-25T16:27:17.552Z,99542.72
2022-12-25T16:29:44.501Z,99532.22
2022-12-25T16:32:12.436Z,99527.03
2022-12-25T16:34:40.531Z,99532.22
2022-12-25T16:37:07.188Z,99518.34
2022-12-25T16:39:33.648Z,99508.84
2022-12-25T16:42:00.124Z,99502.66
2022-12-25T16:44:26.624Z,99511.50
2022-12-25T16:46:53.139Z,99517.78
2022-12-25T16:49:19.797Z,99516.66
2022-12-25T16:51:46.269Z,99533.69
2022-12-25T16:54:14.550Z,99544.44
2022-12-25T16:56:41.416Z,99541.06
2022-12-25T16:59:07.828Z,99554.47
2022-12-25T17:01:34.386Z,99556.41
2022-12-25T17:04:01.424Z,99558.22
2022-12-25T17:06:28.505Z,99546.75
2022-12-25T17:08:59.635Z,99548.31
2022-12-25T17:11:30.060Z,99539.66
2022-12-25T17:13:59.689Z,99544.00
2022-12-25T17:16:28.807Z,99538.09
2022-12-25T17:18:57.024Z,99542.06
2022-12-25T17:21:24.540Z,99548.88
2022-12-25T17:23:50.999Z,99531.63
2022-12-25T17:26:17.403Z,99537.34
2022-12-25T17:28:43.866Z,99552.66
2022-12-25T17:31:12.338Z,99557.97
2022-12-25T17:33:39.962Z,99565.91
2022-12-25T17:36:08.937Z,99557.38
2022-12-25T17:38:35.736Z,99561.09
2022-12-25T17:41:05.233Z,99555.06
2022-12-25T17:43:32.875Z,99549.75
2022-12-25T17:46:13.627Z,99550.50
2022-12-25T17:48:40.261Z,99544.81
2022-12-25T17:51:09.928Z,99543.72
2022-12-25T17:53:37.409Z,99553.75
2022-12-25T17:56:04.149Z,99545.19
2022-12-25T17:58:30.631Z,99541.72
2022-12-25T18:00:57.180Z,99539.06
2022-12-25T18:03:24.098Z,99536.50
2022-12-25T18:05:50.613Z,99536.50
2022-12-25T18:08:17.092Z,99530.97
2022-12-25T18:10:44.070Z,99542.19
2022-12-25T18:13:11.428Z,99540.34
2022-12-25T18:15:39.628Z,99543.59
2022-12-25T18:18:07.910Z,99545.28
2022-12-25T18:20:39.818Z,99549.25
2022-12-25T18:23:07.941Z,99555.50
2022-12-25T18:25:34.779Z,99545.84
2022-12-25T18:28:02.617Z,99545.84
2022-12-25T18:30:29.656Z,99559.13
2022-12-25T18:32:56.112Z,99562.50
2022-12-25T18:35:22.952Z,99552.84
2022-12-25T18:37:49.408Z,99559.03
2022-12-25T18:40:15.807Z,99562.78
2022-12-25T18:42:43.256Z,99559.72
2022-12-25T18:45:12.961Z,99565.03
2022-12-25T18:47:39.451Z,99573.00
2022-12-25T18:50:06.943Z,99571.34
2022-12-25T18:52:47.895Z,99567.00
2022-12-25T18:55:17.808Z,99552.16
2022-12-25T18:57:44.217Z,99529.38
2022-12-25T19:00:11.039Z,99535.78
2022-12-25T19:02:37.698Z,99538.53
2022-12-25T19:05:05.301Z,99543.13
2022-12-25T19:07:31.893Z,99544.22
2022-12-25T19:09:58.364Z,99530.97
2022-12-25T19:12:24.840Z,99540.47
2022-12-25T19:14:51.641Z,99547.47
2022-12-25T19:17:18.298Z,99549.41
2022-12-25T19:19:45.320Z,99546.88
2022-12-25T19:22:11.885Z,99539.06
2022-12-25T19:24:38.335Z,99535.41
2022-12-25T19:27:04.768Z,99533.75
2022-12-25T19:29:31.689Z,99516.00
2022-12-25T19:31:58.295Z,99508.88
2022-12-25T19:34:24.953Z,99518.53
2022-12-25T19:36:51.737Z,99527.34
2022-12-25T19:39:18.701Z,99531.66
2022-12-25T19:41:47.220Z,99534.22
2022-12-25T19:44:13.695Z,99542.19
2022-12-25T19:46:40.796Z,99537.97
2022-12-25T19:49:08.351Z,99528.19
2022-12-25T19:51:40.864Z,99534.72
2022-12-25T19:54:07.927Z,99536.72
2022-12-25T19:56:34.973Z,99545.41
2022-12-25T19:59:01.736Z,99557.50
2022-12-25T20:01:29.436Z,99550.50
2022-12-25T20:03:56.653Z,99559.19
2022-12-25T20:06:28.408Z,99550.13
2022-12-25T20:08:57.212Z,99565.19
2022-12-25T20:11:25.416Z,99551.69
2022-12-25T20:13:52.188Z,99552.53
2022-12-25T20:16:18.780Z,99544.56
2022-12-25T20:18:45.443Z,99541.19
2022-12-25T20:21:17.878Z,99561.44
2022-12-25T20:23:47.296Z,99567.72
2022-12-25T20:26:14.432Z,99564.34
2022-12-25T20:28:41.824Z,99565.19
2022-12-25T20:31:19.942Z,99555.53
2022-12-25T20:33:46.811Z,99567.16
2022-12-25T20:36:13.281Z,99581.97
2022-12-25T20:38:40.428Z,99584.03
2022-12-25T20:41:27.346Z,99576.75
2022-12-25T20:43:55.968Z,99582.53
2022-12-25T20:46:22.802Z,99577.84
2022-12-25T20:48:49.346Z,99569.63
2022-12-25T20:51:23.866Z,99575.19
2022-12-25T20:53:51.000Z,99575.31
2022-12-25T20:56:18.600Z,99585.94
2022-12-25T20:58:45.179Z,99593.28
2022-12-25T21:01:17.099Z,99608.50
2022-12-25T21:03:44.586Z,99588.72
2022-12-25T21:06:11.913Z,99609.69
2022-12-25T21:08:39.050Z,99609.69
2022-12-25T21:11:05.991Z,99602.56
2022-12-25T21:13:35.253Z,99612.19
2022-12-25T21:16:04.804Z,99620.88
2022-12-25T21:18:31.300Z,99620.88
2022-12-25T21:21:05.643Z,99620.06
2022-12-25T21:23:36.540Z,99620.88
2022-12-25T21:26:15.430Z,99620.88
2022-12-25T21:28:42.043Z,99615.09
2022-12-25T21:31:08.948Z,99620.28
2022-12-25T21:33:54.278Z,99619.31
2022-12-25T21:36:24.978Z,99635.97
2022-12-25T21:38:53.406Z,99635.97
2022-12-25T21:41:20.219Z,99636.78
2022-12-25T21:43:46.786Z,99639.19
2022-12-25T21:46:14.243Z,99630.41
2022-12-25T21:48:43.290Z,99632.69
2022-12-25T21:51:36.071Z,99632.69
2022-12-25T21:54:03.074Z,99637.00
2022-12-25T21:56:39.772Z,99644.97
2022-12-25T21:59:11.150Z,99638.56
2022-12-25T22:01:38.349Z,99638.56
2022-12-25T22:04:07.530Z,99658.69
2022-12-25T22:06:53.203Z,99640.13
2022-12-25T22:09:20.647Z,99640.72
2022-12-25T22:12:05.812Z,99641.31
2022-12-25T22:14:54.056Z,99651.72
2022-12-25T22:17:48.398Z,99659.41
2022-12-25T22:20:34.527Z,99650.34
2022-12-25T22:23:01.096Z,99660.69
2022-12-25T22:25:27.563Z,99654.44
2022-12-25T22:27:54.412Z,99666.00
2022-12-25T22:30:28.919Z,99665.31
2022-12-25T22:32:56.080Z,99667.00
2022-12-25T22:35:22.916Z,99670.38
2022-12-25T22:37:49.933Z,99650.94
2022-12-25T22:40:18.003Z,99669.66
2022-12-25T22:42:46.883Z,99676.63
2022-12-25T22:45:13.726Z,99665.91
2022-12-25T22:47:40.514Z,99675.53
2022-12-25T22:50:07.424Z,99673.75
2022-12-25T22:52:33.955Z,99672.06
